Time;durP1;ratioP1;P1;durP2;ratioP2;P2;SDS_P1;SDS_P2;PMS_P1;PMS_P2;Temp;Humidity;BMP_temperature;BMP_pressure;BME280_temperature;BME280_humidity;BME280_pressure;Samples;Min_cycle;Max_cycle;Signal;HPM_P1;HPM_P2
2022/01/01 00:02:22;;;;;;;109.82;44.55;;;11.10;99.90;;;;;;5080442;28;20043;-95
2022/01/01 00:04:48;;;;;;;96.47;45.38;;;11.10;99.90;;;;;;5097655;28;20048;-93
2022/01/01 00:07:14;;;;;;;96.03;48.53;;;11.00;99.90;;;;;;5080628;28;20112;-94
2022/01/01 00:09:43;;;;;;;104.38;50.53;;;10.90;99.90;;;;;;5081086;28;20544;-94
2022/01/01 00:12:28;;;;;;;123.55;53.08;;;10.90;99.90;;;;;;5081584;28;20043;-94
2022/01/01 00:14:56;;;;;;;115.25;55.78;;;10.90;99.90;;;;;;5081773;28;20044;-94
2022/01/01 00:17:22;;;;;;;126.30;56.97;;;10.80;99.90;;;;;;5096756;28;20127;-93
2022/01/01 00:19:48;;;;;;;122.18;59.22;;;10.70;99.90;;;;;;5079677;28;20055;-94
2022/01/01 00:22:14;;;;;;;147.75;62.42;;;10.70;99.90;;;;;;5098279;28;20031;-94
2022/01/01 00:24:40;;;;;;;141.40;60.65;;;10.60;99.90;;;;;;5079671;28;20114;-93
2022/01/01 00:27:06;;;;;;;122.25;55.67;;;10.50;99.90;;;;;;5080021;28;20052;-93
2022/01/01 00:29:34;;;;;;;114.63;55.42;;;10.50;99.90;;;;;;5080381;28;20512;-92
2022/01/01 00:32:00;;;;;;;120.88;51.35;;;10.50;99.90;;;;;;5079978;28;20039;-94
2022/01/01 00:34:26;;;;;;;107.45;47.08;;;10.50;99.90;;;;;;5079398;28;20047;-94
2022/01/01 00:36:51;;;;;;;109.80;47.60;;;10.40;99.90;;;;;;5079983;28;20108;-93
2022/01/01 00:39:17;;;;;;;105.30;43.05;;;10.30;99.90;;;;;;5079745;28;20059;-93
2022/01/01 00:41:43;;;;;;;85.97;40.47;;;10.40;99.90;;;;;;5079732;28;20097;-94
2022/01/01 00:44:09;;;;;;;96.53;41.58;;;10.40;99.90;;;;;;5079748;28;20074;-92
2022/01/01 00:46:35;;;;;;;99.28;44.58;;;10.40;99.90;;;;;;5077926;28;20044;-93
2022/01/01 00:49:00;;;;;;;107.32;43.63;;;10.40;99.90;;;;;;5100388;28;20047;-93
2022/01/01 00:51:26;;;;;;;98.07;43.60;;;10.50;99.90;;;;;;5116660;28;20047;-93
2022/01/01 00:53:55;;;;;;;94.13;43.63;;;10.50;99.90;;;;;;5098588;28;20501;-93
2022/01/01 00:56:21;;;;;;;106.65;43.30;;;10.50;99.90;;;;;;5099378;28;20047;-94
2022/01/01 00:58:46;;;;;;;93.43;40.38;;;10.60;99.90;;;;;;5099319;28;20378;-93
2022/01/01 01:01:14;;;;;;;88.82;40.72;;;10.60;99.90;;;;;;5099862;28;20039;-93
2022/01/01 01:03:40;;;;;;;91.65;38.78;;;10.70;99.90;;;;;;5099503;28;20146;-93
2022/01/01 01:06:06;;;;;;;98.57;41.40;;;10.60;99.90;;;;;;5099530;28;20075;-92
2022/01/01 01:08:31;;;;;;;84.40;36.13;;;10.70;99.90;;;;;;5116827;28;20050;-93
2022/01/01 01:10:58;;;;;;;84.82;37.70;;;10.70;99.90;;;;;;5099692;28;20103;-92
2022/01/01 01:13:26;;;;;;;78.53;37.60;;;10.70;99.90;;;;;;5099679;28;20515;-92
2022/01/01 01:15:54;;;;;;;80.13;35.22;;;10.70;99.90;;;;;;5101205;28;20050;-93
2022/01/01 01:18:20;;;;;;;75.03;33.55;;;10.90;99.90;;;;;;5100206;28;20112;-93
2022/01/01 01:20:48;;;;;;;86.38;33.67;;;10.70;99.90;;;;;;5101143;28;20053;-93
2022/01/01 01:23:14;;;;;;;69.47;32.05;;;10.70;99.90;;;;;;5099596;28;20046;-92
2022/01/01 01:25:41;;;;;;;86.22;38.50;;;10.80;99.90;;;;;;5099650;28;20046;-93
2022/01/01 01:28:13;;;;;;;84.35;35.28;;;10.80;99.90;;;;;;5100049;28;20049;-93
2022/01/01 01:30:40;;;;;;;88.82;33.63;;;10.80;99.90;;;;;;5099284;28;20047;-93
2022/01/01 01:33:07;;;;;;;84.15;37.97;;;10.80;99.90;;;;;;5102606;27;20042;-92
2022/01/01 01:35:33;;;;;;;108.07;43.92;;;10.80;99.90;;;;;;5103711;27;20502;-92
2022/01/01 01:37:59;;;;;;;111.70;45.22;;;10.80;99.90;;;;;;5103152;27;20047;-93
2022/01/01 01:40:28;;;;;;;105.25;51.33;;;10.90;99.90;;;;;;5103423;27;20160;-95
2022/01/01 01:42:54;;;;;;;120.72;54.22;;;10.90;99.90;;;;;;5120781;27;20054;-93
2022/01/01 01:45:22;;;;;;;115.95;59.40;;;10.90;99.90;;;;;;5103950;27;20492;-94
2022/01/01 01:47:50;;;;;;;126.97;63.33;;;11.10;99.90;;;;;;5103046;27;20392;-92
2022/01/01 01:50:18;;;;;;;131.85;65.28;;;10.90;99.90;;;;;;5120153;27;20039;-93
2022/01/01 01:52:50;;;;;;;140.32;69.18;;;10.90;99.90;;;;;;5103149;27;20054;-94
2022/01/01 01:55:16;;;;;;;154.65;72.50;;;11.00;99.90;;;;;;5102813;27;20047;-93
2022/01/01 01:57:44;;;;;;;157.95;73.53;;;11.00;99.90;;;;;;5102695;27;20050;-94
2022/01/01 02:01:20;;;;;;;143.07;74.22;;;10.90;99.90;;;;;;5103226;27;20071;-94
2022/01/01 02:03:05;;;;;;;152.35;76.15;;;10.80;99.90;;;;;;5111556;27;20147;-93
2022/01/01 02:05:34;;;;;;;158.27;78.30;;;10.80;99.90;;;;;;5120208;27;20130;-94
2022/01/01 02:08:00;;;;;;;149.30;78.32;;;10.80;99.90;;;;;;5103359;27;20069;-93
2022/01/01 02:10:26;;;;;;;170.18;80.85;;;10.80;99.90;;;;;;5102967;27;20112;-94
2022/01/01 02:12:55;;;;;;;154.15;76.13;;;10.70;99.90;;;;;;5102841;27;20134;-94
2022/01/01 02:16:11;;;;;;;159.10;77.03;;;10.80;99.90;;;;;;5119648;27;20508;-94
2022/01/01 02:18:32;;;;;;;144.73;72.18;;;10.70;99.90;;;;;;5119098;27;20057;-92
2022/01/01 02:20:58;;;;;;;156.15;78.40;;;10.60;99.90;;;;;;5102702;27;20138;-93
2022/01/01 02:23:27;;;;;;;155.20;79.47;;;10.60;99.90;;;;;;5102678;27;20387;-94
2022/01/01 02:25:56;;;;;;;153.93;75.75;;;10.60;99.90;;;;;;5102283;27;20044;-94
2022/01/01 02:28:22;;;;;;;161.95;77.78;;;10.60;99.90;;;;;;5102048;27;20055;-92
2022/01/01 02:30:49;;;;;;;148.00;71.32;;;10.70;99.90;;;;;;5102407;27;20043;-93
2022/01/01 02:33:18;;;;;;;151.00;78.55;;;10.60;99.90;;;;;;5102178;27;20503;-93
2022/01/01 02:35:44;;;;;;;153.40;77.68;;;10.70;99.90;;;;;;5101972;27;20046;-92
2022/01/01 02:38:09;;;;;;;146.05;77.28;;;10.70;99.90;;;;;;5118871;27;20043;-94
2022/01/01 02:40:36;;;;;;;162.45;80.43;;;10.70;99.90;;;;;;5102295;27;20047;-93
2022/01/01 02:43:02;;;;;;;150.75;78.00;;;10.80;99.90;;;;;;5101388;27;20054;-94
2022/01/01 02:45:30;;;;;;;145.70;75.80;;;10.80;99.90;;;;;;5101544;27;20039;-93
2022/01/01 02:47:58;;;;;;;145.88;74.10;;;10.80;99.90;;;;;;5102113;27;20062;-93
2022/01/01 02:50:24;;;;;;;145.40;77.32;;;10.90;99.90;;;;;;5101664;27;20126;-94
2022/01/01 02:52:50;;;;;;;146.30;75.05;;;10.80;99.90;;;;;;5101287;27;20089;-93
2022/01/01 02:55:16;;;;;;;153.13;77.00;;;10.80;99.90;;;;;;5102160;27;20103;-92
2022/01/01 02:57:42;;;;;;;153.65;81.18;;;10.80;99.90;;;;;;5101675;27;20035;-93
2022/01/01 03:00:08;;;;;;;159.40;82.43;;;10.80;99.90;;;;;;5102251;27;20493;-94
2022/01/01 03:02:34;;;;;;;163.98;82.18;;;10.80;99.90;;;;;;5118936;27;20046;-94
2022/01/01 03:05:00;;;;;;;163.32;85.00;;;11.00;99.90;;;;;;5118106;27;20054;-94
2022/01/01 03:07:26;;;;;;;160.77;82.80;;;10.70;99.90;;;;;;5118638;27;20392;-92
2022/01/01 03:09:51;;;;;;;157.60;80.50;;;10.70;99.90;;;;;;5101418;27;20036;-93
2022/01/01 03:12:20;;;;;;;148.40;75.78;;;10.80;99.90;;;;;;5101436;27;20047;-95
2022/01/01 03:14:48;;;;;;;156.73;75.72;;;10.80;99.90;;;;;;5102016;27;20401;-92
2022/01/01 03:17:14;;;;;;;152.48;76.75;;;10.80;99.90;;;;;;5101396;27;20046;-95
2022/01/01 03:19:39;;;;;;;146.15;78.30;;;10.80;99.90;;;;;;5101711;27;20043;-94
2022/01/01 03:22:08;;;;;;;154.88;80.95;;;10.70;99.90;;;;;;5102199;27;20044;-94
2022/01/01 03:24:34;;;;;;;147.75;73.80;;;10.80;99.90;;;;;;5101085;27;20039;-93
2022/01/01 03:27:01;;;;;;;133.50;65.85;;;10.80;99.90;;;;;;5101858;27;20054;-93
2022/01/01 03:29:31;;;;;;;150.00;73.40;;;10.90;99.90;;;;;;5101916;27;20061;-94
2022/01/01 03:31:57;;;;;;;140.87;71.77;;;10.90;99.90;;;;;;5102275;27;20093;-94
2022/01/01 03:34:27;;;;;;;140.45;69.90;;;10.80;99.90;;;;;;5102519;27;20043;-95
2022/01/01 03:36:55;;;;;;;140.30;70.28;;;10.80;99.90;;;;;;5102725;27;20139;-94
2022/01/01 03:39:22;;;;;;;139.15;69.45;;;10.90;99.90;;;;;;5103147;27;20050;-94
2022/01/01 03:41:49;;;;;;;147.07;69.30;;;10.90;99.90;;;;;;5102275;27;20039;-93
2022/01/01 03:44:16;;;;;;;140.35;66.35;;;10.90;99.90;;;;;;5120033;27;20053;-95
2022/01/01 03:46:42;;;;;;;142.32;67.10;;;10.90;99.90;;;;;;5102641;27;20051;-96
2022/01/01 03:49:08;;;;;;;128.80;63.88;;;10.90;99.90;;;;;;5105500;27;20069;-95
2022/01/01 03:51:34;;;;;;;124.85;66.28;;;10.90;99.90;;;;;;5102772;27;20051;-95
2022/01/01 03:54:05;;;;;;;134.70;63.95;;;10.90;99.90;;;;;;5100446;28;20062;-95
2022/01/01 03:56:31;;;;;;;128.15;62.95;;;11.10;99.90;;;;;;5103254;27;20047;-95
2022/01/01 03:58:57;;;;;;;127.18;62.58;;;10.90;99.90;;;;;;5102916;27;20039;-95
2022/01/01 04:01:23;;;;;;;127.53;62.60;;;11.00;99.90;;;;;;5101741;27;20035;-94
2022/01/01 04:03:48;;;;;;;132.82;61.17;;;10.90;99.90;;;;;;5102179;27;20080;-94
2022/01/01 04:06:14;;;;;;;125.82;58.72;;;10.80;99.90;;;;;;5101739;27;20104;-95
2022/01/01 04:08:40;;;;;;;120.38;60.70;;;11.00;99.90;;;;;;5101868;27;20133;-94
2022/01/01 04:11:06;;;;;;;127.68;61.88;;;11.00;99.90;;;;;;5100873;27;20396;-94
2022/01/01 04:13:32;;;;;;;124.28;60.97;;;11.00;99.90;;;;;;5100836;27;20069;-95
2022/01/01 04:15:58;;;;;;;120.13;59.08;;;11.00;99.90;;;;;;5119128;27;20040;-93
2022/01/01 04:18:37;;;;;;;123.97;58.97;;;11.00;99.90;;;;;;5100512;27;20138;-94
2022/01/01 04:21:04;;;;;;;128.15;61.20;;;11.10;99.90;;;;;;5102722;27;20391;-94
2022/01/01 04:23:30;;;;;;;126.78;60.17;;;11.10;99.90;;;;;;5101058;27;20046;-94
2022/01/01 04:25:56;;;;;;;122.68;59.60;;;11.20;99.90;;;;;;5104064;27;20046;-94
2022/01/01 04:28:25;;;;;;;122.20;60.08;;;11.20;99.90;;;;;;5102237;27;20054;-95
2022/01/01 04:30:54;;;;;;;120.93;60.08;;;11.10;99.90;;;;;;5102748;27;20039;-94
2022/01/01 04:33:19;;;;;;;122.25;59.03;;;11.20;99.90;;;;;;5101238;27;20485;-95
2022/01/01 04:35:45;;;;;;;122.35;58.50;;;11.10;99.90;;;;;;5102357;27;20085;-95
2022/01/01 04:38:28;;;;;;;128.00;58.55;;;11.20;99.90;;;;;;5101653;27;20044;-93
2022/01/01 04:40:54;;;;;;;119.82;57.78;;;11.10;99.90;;;;;;5101245;27;20047;-93
2022/01/01 04:43:20;;;;;;;119.72;53.97;;;11.30;99.90;;;;;;5100583;28;20058;-94
2022/01/01 04:45:46;;;;;;;120.10;57.90;;;11.10;99.90;;;;;;5101550;27;20051;-95
2022/01/01 04:48:12;;;;;;;118.97;55.70;;;11.00;99.90;;;;;;5102962;28;20097;-94
2022/01/01 04:50:38;;;;;;;112.70;55.10;;;11.30;99.90;;;;;;5101124;27;20109;-94
2022/01/01 04:53:03;;;;;;;113.18;53.38;;;11.20;99.90;;;;;;5099909;28;20043;-93
2022/01/01 04:55:29;;;;;;;111.40;51.65;;;11.10;99.90;;;;;;5100857;28;20098;-95
2022/01/01 04:57:55;;;;;;;106.57;50.15;;;11.30;99.90;;;;;;5118044;28;20100;-95
2022/01/01 05:00:21;;;;;;;104.18;49.15;;;11.20;99.90;;;;;;5099268;28;20513;-96
2022/01/01 05:02:46;;;;;;;97.38;45.10;;;11.20;99.90;;;;;;5100965;28;20051;-94
2022/01/01 05:05:12;;;;;;;104.93;44.83;;;11.30;99.90;;;;;;5100990;27;20488;-93
2022/01/01 05:07:38;;;;;;;102.32;44.78;;;11.30;99.90;;;;;;5106541;27;20058;-94
2022/01/01 05:10:05;;;;;;;98.65;43.08;;;11.20;99.90;;;;;;5104687;27;20489;-94
2022/01/01 05:12:34;;;;;;;89.07;39.30;;;11.30;99.90;;;;;;5104130;27;20476;-94
2022/01/01 05:15:00;;;;;;;84.38;36.25;;;11.30;99.90;;;;;;5103942;27;20043;-96
2022/01/01 05:17:26;;;;;;;89.47;37.28;;;11.30;99.90;;;;;;5104515;27;20107;-94
2022/01/01 05:19:54;;;;;;;76.00;32.15;;;11.30;99.90;;;;;;5104090;27;20043;-93
2022/01/01 05:22:20;;;;;;;85.60;36.05;;;11.20;99.90;;;;;;5104992;27;20135;-93
2022/01/01 05:24:46;;;;;;;89.72;36.95;;;11.20;99.90;;;;;;5104215;27;20085;-95
2022/01/01 05:27:11;;;;;;;80.28;33.38;;;11.20;99.90;;;;;;5102879;27;20055;-93
2022/01/01 05:29:37;;;;;;;81.32;33.60;;;11.20;99.90;;;;;;5104447;27;20159;-94
2022/01/01 05:32:03;;;;;;;79.88;31.42;;;11.20;99.90;;;;;;5103302;27;20177;-94
2022/01/01 05:34:29;;;;;;;74.28;30.23;;;11.20;99.90;;;;;;5103676;27;20055;-95
2022/01/01 05:36:55;;;;;;;78.75;29.92;;;11.30;99.90;;;;;;5104208;27;20058;-94
2022/01/01 05:39:20;;;;;;;71.32;29.70;;;11.20;99.90;;;;;;5103954;27;20046;-93
2022/01/01 05:41:54;;;;;;;75.53;27.75;;;11.20;99.90;;;;;;5104554;27;20043;-93
2022/01/01 05:44:22;;;;;;;81.18;30.50;;;11.20;99.90;;;;;;5106989;27;20051;-96
2022/01/01 05:46:56;;;;;;;73.72;29.08;;;11.20;99.90;;;;;;5104178;27;20134;-95
2022/01/01 05:49:22;;;;;;;77.63;29.85;;;11.20;99.90;;;;;;5105208;27;20043;-95
2022/01/01 05:51:47;;;;;;;75.93;29.50;;;11.40;99.90;;;;;;5105818;27;20051;-94
2022/01/01 05:54:13;;;;;;;70.55;27.20;;;11.20;99.90;;;;;;5103220;27;20166;-95
2022/01/01 05:56:39;;;;;;;74.50;27.50;;;11.10;99.90;;;;;;5103809;27;20043;-94
2022/01/01 05:59:05;;;;;;;80.75;26.60;;;11.20;99.90;;;;;;5120214;27;20053;-95
2022/01/01 06:01:31;;;;;;;58.50;23.80;;;11.30;99.90;;;;;;5120356;27;20039;-95
2022/01/01 06:03:57;;;;;;;64.78;23.65;;;11.30;99.90;;;;;;5103771;27;20104;-95
2022/01/01 06:06:25;;;;;;;65.25;23.55;;;11.30;99.90;;;;;;5103722;27;20095;-95
2022/01/01 06:08:51;;;;;;;57.28;22.50;;;11.30;99.90;;;;;;5103855;27;20047;-94
2022/01/01 06:11:16;;;;;;;61.35;22.63;;;11.30;99.90;;;;;;5104195;27;20126;-95
2022/01/01 06:13:45;;;;;;;56.20;21.45;;;11.30;99.90;;;;;;5103813;27;20047;-95
2022/01/01 06:16:11;;;;;;;58.83;22.40;;;11.30;99.90;;;;;;5104063;27;20047;-95
2022/01/01 06:18:36;;;;;;;67.65;21.92;;;11.30;99.90;;;;;;5103074;27;20035;-95
2022/01/01 06:21:03;;;;;;;59.40;21.63;;;11.40;99.90;;;;;;5104330;27;20055;-95
2022/01/01 06:23:29;;;;;;;61.15;22.73;;;11.40;99.90;;;;;;5104875;27;20051;-95
2022/01/01 06:25:55;;;;;;;65.72;23.15;;;11.40;99.90;;;;;;5104764;27;20445;-94
2022/01/01 06:28:21;;;;;;;67.32;22.67;;;11.40;99.90;;;;;;5103274;27;20613;-94
2022/01/01 06:30:47;;;;;;;83.63;25.75;;;11.40;99.90;;;;;;5119926;27;20063;-95
2022/01/01 06:33:15;;;;;;;83.45;24.20;;;11.30;99.90;;;;;;5120863;27;20141;-94
2022/01/01 06:35:46;;;;;;;73.63;25.08;;;11.30;99.90;;;;;;5103455;27;20051;-95
2022/01/01 06:38:13;;;;;;;89.75;27.30;;;11.30;99.90;;;;;;5103296;27;20043;-95
2022/01/01 06:40:40;;;;;;;77.05;26.67;;;11.40;99.90;;;;;;5103550;27;20039;-93
2022/01/01 06:43:08;;;;;;;81.20;26.63;;;11.20;99.90;;;;;;5103523;27;20055;-95
2022/01/01 06:45:34;;;;;;;88.55;27.00;;;11.20;99.90;;;;;;5103072;27;20400;-94
2022/01/01 06:48:00;;;;;;;80.97;26.73;;;11.20;99.90;;;;;;5120440;27;20047;-94
2022/01/01 06:50:26;;;;;;;75.07;26.33;;;11.20;99.90;;;;;;5120382;27;20035;-93
2022/01/01 06:52:52;;;;;;;72.47;24.80;;;11.20;99.90;;;;;;5102458;27;20405;-94
2022/01/01 06:55:18;;;;;;;70.05;26.30;;;11.20;99.90;;;;;;5103016;27;20404;-94
2022/01/01 06:57:45;;;;;;;68.25;26.23;;;11.20;99.90;;;;;;5103247;27;20073;-94
2022/01/01 07:00:12;;;;;;;84.60;26.60;;;11.30;99.90;;;;;;5103522;27;20074;-95
2022/01/01 07:02:44;;;;;;;76.95;26.73;;;11.20;99.90;;;;;;5103259;27;20047;-94
2022/01/01 07:05:11;;;;;;;82.00;27.23;;;11.20;99.90;;;;;;5120979;27;20050;-94
2022/01/01 07:07:37;;;;;;;81.15;27.80;;;11.40;99.90;;;;;;5103374;27;20504;-95
2022/01/01 07:10:09;;;;;;;71.97;25.42;;;11.20;99.90;;;;;;5103147;27;20047;-95
2022/01/01 07:12:36;;;;;;;78.15;26.67;;;11.20;99.90;;;;;;5102313;27;20043;-94
2022/01/01 07:15:03;;;;;;;66.50;25.10;;;11.30;99.90;;;;;;5101976;27;20047;-94
2022/01/01 07:17:29;;;;;;;71.10;25.30;;;11.30;99.90;;;;;;5101821;27;20038;-94
2022/01/01 07:19:57;;;;;;;67.40;25.55;;;11.10;99.90;;;;;;5102239;27;20031;-94
2022/01/01 07:22:23;;;;;;;60.78;24.33;;;11.20;99.90;;;;;;5101823;27;20047;-94
2022/01/01 07:24:51;;;;;;;68.10;23.85;;;11.30;99.90;;;;;;5102117;27;20373;-96
2022/01/01 07:27:20;;;;;;;68.03;24.10;;;11.50;99.90;;;;;;5101442;27;20520;-94
2022/01/01 07:29:47;;;;;;;65.88;24.73;;;11.30;99.90;;;;;;5100602;27;20039;-94
2022/01/01 07:32:12;;;;;;;69.32;26.10;;;11.20;99.90;;;;;;5101175;27;20092;-95
2022/01/01 07:34:38;;;;;;;65.57;24.05;;;11.30;99.90;;;;;;5102564;27;20043;-94
2022/01/01 07:37:04;;;;;;;70.60;24.80;;;11.30;99.90;;;;;;5101213;27;20064;-94
2022/01/01 07:39:30;;;;;;;70.32;26.17;;;11.50;99.90;;;;;;5101542;27;20082;-94
2022/01/01 07:41:56;;;;;;;69.93;25.58;;;11.40;99.90;;;;;;5101707;27;20539;-95
2022/01/01 07:44:21;;;;;;;59.10;25.67;;;11.30;99.90;;;;;;5101947;27;20403;-95
2022/01/01 07:46:50;;;;;;;59.85;24.63;;;11.40;99.90;;;;;;5120715;27;20484;-95
2022/01/01 07:49:16;;;;;;;68.18;25.95;;;11.40;99.90;;;;;;5104481;27;20135;-94
2022/01/01 07:51:45;;;;;;;64.32;26.02;;;11.50;99.90;;;;;;5105209;27;20142;-94
2022/01/01 07:54:14;;;;;;;58.95;26.38;;;11.40;99.90;;;;;;5087689;27;20115;-94
2022/01/01 07:56:40;;;;;;;62.13;26.58;;;11.50;99.90;;;;;;5103984;27;20039;-95
2022/01/01 07:59:05;;;;;;;60.50;26.55;;;11.50;99.90;;;;;;5103307;27;20107;-94
2022/01/01 08:01:31;;;;;;;77.93;28.65;;;11.50;99.90;;;;;;5106258;27;20047;-94
2022/01/01 08:04:02;;;;;;;76.03;28.80;;;11.50;99.90;;;;;;5105484;27;20051;-94
2022/01/01 08:06:30;;;;;;;75.03;29.67;;;11.50;99.90;;;;;;5104371;27;20072;-93
2022/01/01 08:08:55;;;;;;;68.50;28.95;;;11.50;99.90;;;;;;5104097;27;20054;-94
2022/01/01 08:11:24;;;;;;;78.07;30.60;;;11.50;99.90;;;;;;5104922;27;20393;-94
2022/01/01 08:13:53;;;;;;;71.05;29.80;;;11.60;99.90;;;;;;5104275;27;20055;-93
2022/01/01 08:16:19;;;;;;;65.40;31.10;;;11.60;99.90;;;;;;5103787;27;20102;-94
2022/01/01 08:18:45;;;;;;;68.68;32.72;;;11.60;99.90;;;;;;5103266;27;20047;-95
2022/01/01 08:21:13;;;;;;;75.40;31.90;;;11.60;99.90;;;;;;5111654;27;20049;-94
2022/01/01 08:23:39;;;;;;;69.45;36.80;;;11.70;99.90;;;;;;5121407;27;20107;-94
2022/01/01 08:26:07;;;;;;;87.15;36.38;;;11.80;99.90;;;;;;5116627;27;20043;-95
2022/01/01 08:28:33;;;;;;;64.50;31.02;;;11.70;99.90;;;;;;5103627;27;20054;-94
2022/01/01 08:30:59;;;;;;;72.97;33.33;;;11.80;99.90;;;;;;5102916;28;20039;-94
2022/01/01 08:33:25;;;;;;;80.90;32.17;;;11.80;99.90;;;;;;5102810;27;20091;-94
2022/01/01 08:35:51;;;;;;;75.60;34.78;;;12.00;99.90;;;;;;5102727;27;20042;-94
2022/01/01 08:38:19;;;;;;;67.50;31.52;;;11.80;99.90;;;;;;5104245;27;20036;-95
2022/01/01 08:40:45;;;;;;;60.20;31.45;;;11.90;99.90;;;;;;5102769;27;20039;-94
2022/01/01 08:43:11;;;;;;;72.80;33.20;;;11.80;99.90;;;;;;5115305;27;20441;-95
2022/01/01 08:45:37;;;;;;;73.07;31.15;;;12.00;99.90;;;;;;5105472;28;20417;-94
2022/01/01 08:48:07;;;;;;;55.85;29.83;;;12.00;99.90;;;;;;5104104;28;20404;-93
2022/01/01 08:50:36;;;;;;;60.97;28.10;;;12.00;99.90;;;;;;5102119;28;20042;-94
2022/01/01 08:53:06;;;;;;;61.50;28.48;;;12.10;99.90;;;;;;5103952;28;20046;-93
2022/01/01 08:55:32;;;;;;;60.30;27.83;;;12.10;99.90;;;;;;5103682;28;20096;-94
2022/01/01 08:57:58;;;;;;;62.40;27.95;;;12.20;99.90;;;;;;5105618;28;20067;-94
2022/01/01 09:00:23;;;;;;;55.75;26.50;;;12.20;99.90;;;;;;5105076;28;20137;-94
2022/01/01 09:02:49;;;;;;;57.67;24.35;;;12.00;99.90;;;;;;5105502;28;20068;-93
2022/01/01 09:05:15;;;;;;;50.03;24.45;;;12.20;99.90;;;;;;5103966;28;20469;-94
2022/01/01 09:07:44;;;;;;;50.42;22.60;;;12.20;99.90;;;;;;5103964;28;20457;-94
2022/01/01 09:10:10;;;;;;;49.58;22.75;;;12.30;99.90;;;;;;5103151;28;20141;-96
2022/01/01 09:12:36;;;;;;;48.75;21.30;;;12.30;99.90;;;;;;5094899;28;20500;-94
2022/01/01 09:15:12;;;;;;;51.63;20.75;;;12.40;99.90;;;;;;5099969;28;20055;-95
2022/01/01 09:17:38;;;;;;;43.85;18.98;;;12.40;99.90;;;;;;5103549;28;20040;-95
2022/01/01 09:20:04;;;;;;;38.08;18.25;;;12.50;99.90;;;;;;5103383;28;20136;-93
2022/01/01 09:22:30;;;;;;;44.25;19.45;;;12.70;99.90;;;;;;5105389;28;20063;-94
2022/01/01 09:24:56;;;;;;;38.08;17.30;;;12.90;99.90;;;;;;5102322;28;20151;-94
2022/01/01 09:27:22;;;;;;;36.13;16.95;;;13.00;99.90;;;;;;5104414;28;20035;-94
2022/01/01 09:29:50;;;;;;;97.82;20.40;;;13.10;99.90;;;;;;5106018;28;20054;-94
2022/01/01 09:32:23;;;;;;;39.17;16.10;;;13.20;99.90;;;;;;5102969;28;20054;-95
2022/01/01 09:34:49;;;;;;;36.35;15.52;;;13.20;99.90;;;;;;5106489;28;20043;-95
2022/01/01 09:37:16;;;;;;;33.40;15.15;;;13.30;99.90;;;;;;5107075;28;20515;-95
2022/01/01 09:39:42;;;;;;;32.35;15.10;;;13.20;99.90;;;;;;5108153;28;20039;-93
2022/01/01 09:42:22;;;;;;;23.35;12.85;;;13.20;99.90;;;;;;5120948;28;20054;-95
2022/01/01 09:44:52;;;;;;;28.13;13.18;;;13.30;99.90;;;;;;5101599;28;20058;-95
2022/01/01 09:47:21;;;;;;;29.30;12.70;;;13.30;99.90;;;;;;5103130;28;20488;-94
2022/01/01 09:49:48;;;;;;;30.92;12.30;;;13.40;99.90;;;;;;5085565;28;20104;-95
2022/01/01 09:52:19;;;;;;;27.10;11.95;;;13.50;99.90;;;;;;5102915;27;20498;-93
2022/01/01 09:54:47;;;;;;;27.55;11.52;;;13.50;99.90;;;;;;5102570;28;20059;-95
2022/01/01 09:57:13;;;;;;;23.67;11.20;;;13.40;99.90;;;;;;5101631;28;20054;-95
2022/01/01 09:59:40;;;;;;;25.83;10.55;;;13.40;99.90;;;;;;5102228;28;20039;-94
2022/01/01 10:02:06;;;;;;;24.63;10.85;;;13.30;99.90;;;;;;5102146;28;20065;-94
2022/01/01 10:04:48;;;;;;;23.08;10.13;;;13.40;99.90;;;;;;5103186;28;20047;-95
2022/01/01 10:07:29;;;;;;;25.42;10.55;;;13.30;99.90;;;;;;5103835;28;20800;-94
2022/01/01 10:09:56;;;;;;;26.08;10.68;;;13.10;99.90;;;;;;5088807;28;20039;-95
2022/01/01 10:12:39;;;;;;;21.60;9.30;;;13.10;99.90;;;;;;5091400;28;20066;-93
2022/01/01 10:15:06;;;;;;;26.40;10.30;;;13.00;99.90;;;;;;5094140;28;20035;-94
2022/01/01 10:17:33;;;;;;;21.10;9.50;;;12.90;99.90;;;;;;5093981;28;20047;-94
2022/01/01 10:19:59;;;;;;;21.42;9.00;;;12.90;99.90;;;;;;5097467;28;20067;-95
2022/01/01 10:22:28;;;;;;;27.77;9.68;;;12.80;99.90;;;;;;5095298;28;20047;-94
2022/01/01 10:28:25;;;;;;;24.20;8.82;;;12.70;99.90;;;;;;5074825;28;20163;-96
2022/01/01 10:30:56;;;;;;;21.60;8.55;;;12.70;99.90;;;;;;5053740;28;20096;-96
2022/01/01 10:33:23;;;;;;;20.77;8.63;;;12.70;99.90;;;;;;5053498;28;20128;-95
2022/01/01 10:35:53;;;;;;;20.30;8.45;;;12.70;99.90;;;;;;5051911;28;20052;-95
2022/01/01 10:38:29;;;;;;;25.35;8.30;;;12.70;99.90;;;;;;5046367;28;20057;-94
2022/01/01 10:41:09;;;;;;;22.77;8.70;;;12.60;99.90;;;;;;5051779;28;20040;-95
2022/01/01 10:43:44;;;;;;;23.20;8.38;;;12.60;99.90;;;;;;5045404;28;20080;-96
2022/01/01 10:46:15;;;;;;;21.52;8.40;;;12.60;99.90;;;;;;5045048;28;20103;-95
2022/01/01 10:49:19;;;;;;;23.27;8.05;;;12.50;99.90;;;;;;5047600;28;20049;-96
2022/01/01 10:51:36;;;;;;;22.15;8.43;;;12.60;99.90;;;;;;5063575;28;20052;-95
2022/01/01 10:54:03;;;;;;;18.42;7.30;;;12.60;99.90;;;;;;5061404;28;20104;-96
2022/01/01 10:56:45;;;;;;;17.25;7.63;;;12.60;99.90;;;;;;5047872;28;20056;-96
2022/01/01 10:59:16;;;;;;;18.83;7.85;;;12.60;99.90;;;;;;5086402;28;20064;-96
2022/01/01 11:01:44;;;;;;;18.13;7.80;;;12.50;99.90;;;;;;5045515;28;20041;-95
2022/01/01 11:04:19;;;;;;;23.42;8.02;;;12.50;99.90;;;;;;5059213;28;20059;-95
2022/01/01 11:07:06;;;;;;;19.08;7.20;;;12.50;99.90;;;;;;5071225;28;20085;-96
2022/01/01 11:09:35;;;;;;;16.88;7.40;;;12.50;99.90;;;;;;5087614;28;20051;-96
2022/01/01 11:12:03;;;;;;;16.30;6.70;;;12.50;99.90;;;;;;5089038;28;20044;-96
2022/01/01 11:14:56;;;;;;;19.30;7.20;;;12.50;99.90;;;;;;5091360;28;20442;-96
2022/01/01 11:17:26;;;;;;;21.80;8.63;;;12.50;99.90;;;;;;5087261;28;20079;-96
2022/01/01 11:19:58;;;;;;;20.05;7.78;;;12.50;99.90;;;;;;5089576;28;20050;-95
2022/01/01 11:22:25;;;;;;;19.75;6.32;;;12.50;99.90;;;;;;5087767;28;20047;-96
2022/01/01 11:24:58;;;;;;;18.08;7.00;;;12.60;99.90;;;;;;5086876;28;20101;-96
2022/01/01 11:27:31;;;;;;;15.32;6.10;;;12.60;99.90;;;;;;5086170;28;20052;-95
2022/01/01 11:29:59;;;;;;;15.60;6.13;;;12.60;99.90;;;;;;5085942;28;20043;-96
2022/01/01 11:32:37;;;;;;;16.08;5.90;;;12.60;99.90;;;;;;5087459;28;20248;-95
2022/01/01 11:35:07;;;;;;;18.95;6.43;;;12.70;99.90;;;;;;5104548;28;20069;-96
2022/01/01 11:37:57;;;;;;;14.85;6.38;;;12.70;99.90;;;;;;5086567;28;20059;-96
2022/01/01 11:40:24;;;;;;;17.60;7.10;;;12.80;99.90;;;;;;5087007;28;20047;-96
2022/01/01 11:42:53;;;;;;;16.52;6.65;;;12.80;99.90;;;;;;5088310;28;20075;-96
2022/01/01 11:45:39;;;;;;;16.23;5.97;;;13.00;99.90;;;;;;5087055;28;20044;-95
2022/01/01 11:48:37;;;;;;;14.27;5.78;;;13.00;99.90;;;;;;5084479;28;20126;-96
2022/01/01 11:51:36;;;;;;;20.50;6.40;;;13.20;99.90;;;;;;5083598;28;20039;-95
2022/01/01 11:54:41;;;;;;;11.85;4.88;;;13.20;99.90;;;;;;5085614;28;20040;-95
2022/01/01 11:57:28;;;;;;;13.20;5.43;;;13.20;99.90;;;;;;5088362;28;20460;-96
2022/01/01 12:00:10;;;;;;;17.45;5.78;;;13.30;99.90;;;;;;5114894;28;20119;-96
2022/01/01 12:02:51;;;;;;;;;;;;;;;;;;;;;
2022/01/01 12:05:29;;;;;;;17.25;6.47;;;13.40;99.90;;;;;;5104718;27;20100;-95
2022/01/01 12:08:05;;;;;;;16.25;6.18;;;13.40;99.90;;;;;;5106691;28;20103;-96
2022/01/01 12:10:40;;;;;;;17.77;5.72;;;13.40;99.90;;;;;;5094361;28;20054;-95
2022/01/01 12:13:09;;;;;;;12.50;5.32;;;13.40;99.90;;;;;;5097071;27;20103;-95
2022/01/01 12:15:59;;;;;;;14.70;6.10;;;13.30;99.90;;;;;;5097910;27;20123;-95
2022/01/01 12:18:29;;;;;;;14.00;5.68;;;13.30;99.90;;;;;;5103444;27;20047;-94
2022/01/01 12:21:02;;;;;;;15.57;6.25;;;13.20;99.90;;;;;;5096471;27;20495;-96
2022/01/01 12:23:41;;;;;;;13.65;6.03;;;13.30;99.90;;;;;;5093915;27;20051;-95
2022/01/01 12:26:14;;;;;;;15.88;6.18;;;13.00;99.90;;;;;;5099520;27;20050;-96
2022/01/01 12:28:42;;;;;;;;;;;13.10;99.90;;;;;;5102789;27;20039;-96
2022/01/01 12:31:15;;;;;;;17.75;6.28;;;13.20;99.90;;;;;;5082626;28;20435;-95
2022/01/01 12:33:50;;;;;;;14.88;6.43;;;13.10;99.90;;;;;;5095765;28;20044;-95
2022/01/01 12:36:21;;;;;;;18.20;6.82;;;13.10;99.90;;;;;;5096186;27;20393;-93
2022/01/01 12:38:50;;;;;;;15.70;7.20;;;13.10;99.90;;;;;;5088007;27;20138;-93